sensor_id;sensor_type;location;lat;lon;timestamp;P1;durP1;ratioP1;P2;durP2;ratioP2
572;SDS011;271;51.114;13.780;2024-03-29T00:00:59;14.80;;;1.20;;
572;SDS011;271;51.114;13.780;2024-03-29T00:03:45;14.35;;;1.23;;
572;SDS011;271;51.114;13.780;2024-03-29T00:06:32;14.50;;;1.40;;
572;SDS011;271;51.114;13.780;2024-03-29T00:09:20;15.63;;;2.10;;
572;SDS011;271;51.114;13.780;2024-03-29T00:12:07;15.80;;;1.57;;
572;SDS011;271;51.114;13.780;2024-03-29T00:14:54;15.32;;;2.10;;
572;SDS011;271;51.114;13.780;2024-03-29T00:17:41;14.50;;;1.48;;
572;SDS011;271;51.114;13.780;2024-03-29T00:20:28;14.60;;;1.70;;
572;SDS011;271;51.114;13.780;2024-03-29T00:23:15;16.63;;;1.80;;
572;SDS011;271;51.114;13.780;2024-03-29T00:26:03;14.50;;;1.27;;
572;SDS011;271;51.114;13.780;2024-03-29T00:28:50;14.80;;;1.50;;
572;SDS011;271;51.114;13.780;2024-03-29T00:31:36;14.90;;;1.60;;
572;SDS011;271;51.114;13.780;2024-03-29T00:34:23;15.38;;;1.73;;
572;SDS011;271;51.114;13.780;2024-03-29T00:37:10;14.90;;;1.23;;
572;SDS011;271;51.114;13.780;2024-03-29T00:39:56;14.65;;;1.30;;
572;SDS011;271;51.114;13.780;2024-03-29T00:42:44;16.17;;;1.47;;
572;SDS011;271;51.114;13.780;2024-03-29T00:45:31;14.20;;;1.00;;
572;SDS011;271;51.114;13.780;2024-03-29T00:48:18;15.73;;;1.15;;
572;SDS011;271;51.114;13.780;2024-03-29T00:51:05;15.73;;;1.10;;
572;SDS011;271;51.114;13.780;2024-03-29T00:53:51;14.20;;;1.10;;
572;SDS011;271;51.114;13.780;2024-03-29T00:56:38;14.38;;;1.10;;
572;SDS011;271;51.114;13.780;2024-03-29T00:59:26;14.90;;;1.10;;
572;SDS011;271;51.114;13.780;2024-03-29T01:02:13;14.55;;;1.10;;
572;SDS011;271;51.114;13.780;2024-03-29T01:05:00;14.50;;;1.00;;
572;SDS011;271;51.114;13.780;2024-03-29T01:07:46;14.05;;;1.10;;
572;SDS011;271;51.114;13.780;2024-03-29T01:10:33;14.90;;;1.05;;
572;SDS011;271;51.114;13.780;2024-03-29T01:13:20;14.82;;;1.20;;
572;SDS011;271;51.114;13.780;2024-03-29T01:16:08;14.60;;;1.38;;
572;SDS011;271;51.114;13.780;2024-03-29T01:18:55;14.43;;;1.00;;
572;SDS011;271;51.114;13.780;2024-03-29T01:21:42;14.90;;;1.27;;
572;SDS011;271;51.114;13.780;2024-03-29T01:24:29;14.57;;;1.10;;
572;SDS011;271;51.114;13.780;2024-03-29T01:27:16;14.93;;;1.10;;
572;SDS011;271;51.114;13.780;2024-03-29T01:30:03;13.97;;;0.90;;
572;SDS011;271;51.114;13.780;2024-03-29T01:32:52;15.77;;;1.00;;
572;SDS011;271;51.114;13.780;2024-03-29T01:35:39;14.00;;;0.90;;
572;SDS011;271;51.114;13.780;2024-03-29T01:38:25;14.70;;;1.00;;
572;SDS011;271;51.114;13.780;2024-03-29T01:41:12;14.80;;;1.10;;
572;SDS011;271;51.114;13.780;2024-03-29T01:43:59;15.27;;;1.00;;
572;SDS011;271;51.114;13.780;2024-03-29T01:46:47;14.27;;;1.20;;
572;SDS011;271;51.114;13.780;2024-03-29T01:49:36;15.27;;;1.00;;
572;SDS011;271;51.114;13.780;2024-03-29T01:52:24;14.60;;;1.43;;
572;SDS011;271;51.114;13.780;2024-03-29T01:55:11;14.27;;;1.20;;
572;SDS011;271;51.114;13.780;2024-03-29T01:57:59;16.37;;;1.97;;
572;SDS011;271;51.114;13.780;2024-03-29T02:00:49;16.40;;;1.10;;
572;SDS011;271;51.114;13.780;2024-03-29T02:03:39;14.47;;;1.30;;
572;SDS011;271;51.114;13.780;2024-03-29T02:06:29;14.50;;;1.00;;
572;SDS011;271;51.114;13.780;2024-03-29T02:09:17;14.60;;;1.40;;
572;SDS011;271;51.114;13.780;2024-03-29T02:12:05;15.93;;;1.30;;
572;SDS011;271;51.114;13.780;2024-03-29T02:14:53;16.20;;;1.33;;
572;SDS011;271;51.114;13.780;2024-03-29T02:17:41;14.77;;;1.00;;
572;SDS011;271;51.114;13.780;2024-03-29T02:20:29;15.10;;;1.50;;
572;SDS011;271;51.114;13.780;2024-03-29T02:23:21;14.60;;;1.63;;
572;SDS011;271;51.114;13.780;2024-03-29T02:26:15;15.27;;;1.40;;
572;SDS011;271;51.114;13.780;2024-03-29T02:29:03;14.50;;;1.33;;
572;SDS011;271;51.114;13.780;2024-03-29T02:31:51;14.70;;;1.50;;
572;SDS011;271;51.114;13.780;2024-03-29T02:34:39;15.90;;;1.23;;
572;SDS011;271;51.114;13.780;2024-03-29T02:37:27;14.63;;;1.10;;
572;SDS011;271;51.114;13.780;2024-03-29T02:40:15;16.10;;;1.03;;
572;SDS011;271;51.114;13.780;2024-03-29T02:43:04;17.88;;;1.30;;
572;SDS011;271;51.114;13.780;2024-03-29T02:45:52;13.95;;;1.00;;
572;SDS011;271;51.114;13.780;2024-03-29T02:48:40;14.63;;;1.00;;
572;SDS011;271;51.114;13.780;2024-03-29T02:51:28;14.27;;;1.00;;
572;SDS011;271;51.114;13.780;2024-03-29T02:54:15;14.30;;;0.97;;
572;SDS011;271;51.114;13.780;2024-03-29T02:57:03;16.20;;;1.20;;
572;SDS011;271;51.114;13.780;2024-03-29T02:59:51;14.77;;;1.10;;
572;SDS011;271;51.114;13.780;2024-03-29T03:02:39;16.35;;;1.23;;
572;SDS011;271;51.114;13.780;2024-03-29T03:05:26;16.07;;;1.20;;
572;SDS011;271;51.114;13.780;2024-03-29T03:08:14;15.40;;;1.83;;
572;SDS011;271;51.114;13.780;2024-03-29T03:11:19;14.45;;;1.40;;
572;SDS011;271;51.114;13.780;2024-03-29T03:14:07;14.27;;;1.00;;
572;SDS011;271;51.114;13.780;2024-03-29T03:16:56;14.45;;;1.15;;
572;SDS011;271;51.114;13.780;2024-03-29T03:19:43;15.23;;;1.50;;
572;SDS011;271;51.114;13.780;2024-03-29T03:22:30;14.88;;;1.30;;
572;SDS011;271;51.114;13.780;2024-03-29T03:25:18;15.27;;;1.20;;
572;SDS011;271;51.114;13.780;2024-03-29T03:28:05;14.80;;;1.17;;
572;SDS011;271;51.114;13.780;2024-03-29T03:30:53;16.67;;;1.03;;
572;SDS011;271;51.114;13.780;2024-03-29T03:33:41;15.27;;;1.27;;
572;SDS011;271;51.114;13.780;2024-03-29T03:36:28;15.30;;;1.10;;
572;SDS011;271;51.114;13.780;2024-03-29T03:39:15;15.53;;;1.40;;
572;SDS011;271;51.114;13.780;2024-03-29T03:42:03;14.40;;;1.00;;
572;SDS011;271;51.114;13.780;2024-03-29T03:44:50;15.47;;;1.10;;
572;SDS011;271;51.114;13.780;2024-03-29T03:47:38;14.70;;;1.03;;
572;SDS011;271;51.114;13.780;2024-03-29T03:50:26;17.37;;;3.30;;
572;SDS011;271;51.114;13.780;2024-03-29T03:53:14;15.23;;;1.33;;
572;SDS011;271;51.114;13.780;2024-03-29T03:56:01;16.67;;;1.23;;
572;SDS011;271;51.114;13.780;2024-03-29T03:58:49;14.37;;;1.20;;
572;SDS011;271;51.114;13.780;2024-03-29T04:01:36;13.77;;;1.00;;
572;SDS011;271;51.114;13.780;2024-03-29T04:04:23;14.90;;;1.00;;
572;SDS011;271;51.114;13.780;2024-03-29T04:07:11;14.07;;;1.10;;
572;SDS011;271;51.114;13.780;2024-03-29T04:09:59;15.20;;;1.25;;
572;SDS011;271;51.114;13.780;2024-03-29T04:12:46;15.27;;;1.30;;
572;SDS011;271;51.114;13.780;2024-03-29T04:15:33;15.90;;;1.43;;
572;SDS011;271;51.114;13.780;2024-03-29T04:18:20;14.40;;;1.20;;
572;SDS011;271;51.114;13.780;2024-03-29T04:21:08;17.65;;;1.38;;
572;SDS011;271;51.114;13.780;2024-03-29T04:23:56;15.57;;;1.25;;
572;SDS011;271;51.114;13.780;2024-03-29T04:26:43;14.80;;;1.40;;
572;SDS011;271;51.114;13.780;2024-03-29T04:29:30;14.80;;;1.35;;
572;SDS011;271;51.114;13.780;2024-03-29T04:32:18;15.10;;;1.17;;
572;SDS011;271;51.114;13.780;2024-03-29T04:35:05;16.08;;;1.20;;
572;SDS011;271;51.114;13.780;2024-03-29T04:37:54;15.23;;;1.60;;
572;SDS011;271;51.114;13.780;2024-03-29T04:40:43;15.38;;;1.50;;
572;SDS011;271;51.114;13.780;2024-03-29T04:43:30;15.20;;;1.77;;
572;SDS011;271;51.114;13.780;2024-03-29T04:46:18;17.20;;;1.90;;
572;SDS011;271;51.114;13.780;2024-03-29T04:49:06;15.60;;;1.65;;
572;SDS011;271;51.114;13.780;2024-03-29T04:51:53;17.30;;;1.30;;
572;SDS011;271;51.114;13.780;2024-03-29T04:54:41;15.75;;;1.40;;
572;SDS011;271;51.114;13.780;2024-03-29T04:57:31;15.07;;;1.97;;
572;SDS011;271;51.114;13.780;2024-03-29T05:00:19;15.20;;;1.53;;
572;SDS011;271;51.114;13.780;2024-03-29T05:03:06;16.33;;;1.50;;
572;SDS011;271;51.114;13.780;2024-03-29T05:05:54;14.85;;;1.45;;
572;SDS011;271;51.114;13.780;2024-03-29T05:08:43;15.13;;;1.60;;
572;SDS011;271;51.114;13.780;2024-03-29T05:11:30;15.40;;;1.90;;
572;SDS011;271;51.114;13.780;2024-03-29T05:14:20;14.82;;;1.38;;
572;SDS011;271;51.114;13.780;2024-03-29T05:17:08;14.75;;;1.52;;
572;SDS011;271;51.114;13.780;2024-03-29T05:19:56;14.63;;;1.37;;
572;SDS011;271;51.114;13.780;2024-03-29T05:22:43;14.43;;;1.20;;
572;SDS011;271;51.114;13.780;2024-03-29T05:25:31;14.73;;;1.30;;
572;SDS011;271;51.114;13.780;2024-03-29T05:28:19;14.80;;;1.45;;
572;SDS011;271;51.114;13.780;2024-03-29T05:31:12;14.30;;;1.20;;
572;SDS011;271;51.114;13.780;2024-03-29T05:34:01;14.30;;;1.17;;
572;SDS011;271;51.114;13.780;2024-03-29T05:36:48;14.47;;;1.40;;
572;SDS011;271;51.114;13.780;2024-03-29T05:39:36;14.80;;;1.27;;
572;SDS011;271;51.114;13.780;2024-03-29T05:42:24;15.20;;;1.10;;
572;SDS011;271;51.114;13.780;2024-03-29T05:45:22;15.70;;;1.47;;
572;SDS011;271;51.114;13.780;2024-03-29T05:48:12;15.33;;;1.20;;
572;SDS011;271;51.114;13.780;2024-03-29T05:51:01;14.00;;;1.00;;
572;SDS011;271;51.114;13.780;2024-03-29T05:53:49;15.30;;;1.20;;
572;SDS011;271;51.114;13.780;2024-03-29T05:56:36;15.43;;;1.30;;
572;SDS011;271;51.114;13.780;2024-03-29T05:59:24;14.30;;;1.43;;
572;SDS011;271;51.114;13.780;2024-03-29T06:02:12;14.93;;;1.10;;
572;SDS011;271;51.114;13.780;2024-03-29T06:05:01;15.17;;;1.10;;
572;SDS011;271;51.114;13.780;2024-03-29T06:07:49;14.40;;;1.00;;
572;SDS011;271;51.114;13.780;2024-03-29T06:10:37;15.70;;;1.30;;
572;SDS011;271;51.114;13.780;2024-03-29T06:13:24;14.97;;;1.17;;
572;SDS011;271;51.114;13.780;2024-03-29T06:16:36;13.93;;;1.10;;
572;SDS011;271;51.114;13.780;2024-03-29T06:19:42;14.97;;;1.10;;
572;SDS011;271;51.114;13.780;2024-03-29T06:22:31;14.27;;;0.90;;
572;SDS011;271;51.114;13.780;2024-03-29T06:25:18;14.00;;;1.20;;
572;SDS011;271;51.114;13.780;2024-03-29T06:28:06;14.60;;;1.10;;
572;SDS011;271;51.114;13.780;2024-03-29T06:31:06;15.90;;;1.70;;
572;SDS011;271;51.114;13.780;2024-03-29T06:33:53;14.30;;;1.10;;
572;SDS011;271;51.114;13.780;2024-03-29T06:36:44;14.57;;;1.40;;
572;SDS011;271;51.114;13.780;2024-03-29T06:39:33;14.57;;;1.53;;
572;SDS011;271;51.114;13.780;2024-03-29T06:42:21;15.10;;;1.40;;
572;SDS011;271;51.114;13.780;2024-03-29T06:45:09;14.00;;;1.00;;
572;SDS011;271;51.114;13.780;2024-03-29T06:48:01;14.37;;;1.30;;
572;SDS011;271;51.114;13.780;2024-03-29T06:50:48;15.20;;;1.67;;
572;SDS011;271;51.114;13.780;2024-03-29T06:53:39;14.50;;;1.10;;
572;SDS011;271;51.114;13.780;2024-03-29T06:56:28;15.30;;;1.10;;
572;SDS011;271;51.114;13.780;2024-03-29T06:59:16;15.10;;;1.20;;
572;SDS011;271;51.114;13.780;2024-03-29T07:02:04;16.27;;;1.60;;
572;SDS011;271;51.114;13.780;2024-03-29T07:04:55;14.33;;;1.20;;
572;SDS011;271;51.114;13.780;2024-03-29T07:07:43;14.43;;;1.10;;
572;SDS011;271;51.114;13.780;2024-03-29T07:10:33;14.90;;;1.20;;
572;SDS011;271;51.114;13.780;2024-03-29T07:13:22;14.20;;;1.10;;
572;SDS011;271;51.114;13.780;2024-03-29T07:16:09;15.20;;;1.60;;
572;SDS011;271;51.114;13.780;2024-03-29T07:18:57;14.50;;;1.30;;
572;SDS011;271;51.114;13.780;2024-03-29T07:21:46;14.40;;;1.20;;
572;SDS011;271;51.114;13.780;2024-03-29T07:24:39;14.60;;;1.23;;
572;SDS011;271;51.114;13.780;2024-03-29T07:27:27;14.13;;;1.17;;
572;SDS011;271;51.114;13.780;2024-03-29T07:30:19;13.87;;;0.90;;
572;SDS011;271;51.114;13.780;2024-03-29T07:33:07;15.03;;;1.40;;
572;SDS011;271;51.114;13.780;2024-03-29T07:35:55;14.10;;;1.20;;
572;SDS011;271;51.114;13.780;2024-03-29T07:38:43;15.23;;;1.53;;
572;SDS011;271;51.114;13.780;2024-03-29T07:41:31;14.93;;;1.10;;
572;SDS011;271;51.114;13.780;2024-03-29T07:44:20;15.10;;;1.80;;
572;SDS011;271;51.114;13.780;2024-03-29T07:47:10;14.60;;;1.37;;
572;SDS011;271;51.114;13.780;2024-03-29T07:49:59;14.50;;;1.20;;
572;SDS011;271;51.114;13.780;2024-03-29T07:52:47;14.90;;;1.10;;
572;SDS011;271;51.114;13.780;2024-03-29T07:55:36;15.87;;;1.80;;
572;SDS011;271;51.114;13.780;2024-03-29T07:58:25;15.30;;;1.30;;
572;SDS011;271;51.114;13.780;2024-03-29T08:01:17;14.30;;;1.00;;
572;SDS011;271;51.114;13.780;2024-03-29T08:04:07;15.57;;;1.30;;
572;SDS011;271;51.114;13.780;2024-03-29T08:06:55;15.00;;;1.27;;
572;SDS011;271;51.114;13.780;2024-03-29T08:09:42;14.77;;;1.40;;
572;SDS011;271;51.114;13.780;2024-03-29T08:12:30;14.77;;;1.10;;
572;SDS011;271;51.114;13.780;2024-03-29T08:15:18;14.63;;;1.40;;
572;SDS011;271;51.114;13.780;2024-03-29T08:18:06;15.70;;;1.40;;
572;SDS011;271;51.114;13.780;2024-03-29T08:20:55;14.20;;;1.10;;
572;SDS011;271;51.114;13.780;2024-03-29T08:23:44;14.40;;;1.23;;
572;SDS011;271;51.114;13.780;2024-03-29T08:26:33;13.93;;;0.90;;
572;SDS011;271;51.114;13.780;2024-03-29T08:29:21;15.57;;;1.60;;
572;SDS011;271;51.114;13.780;2024-03-29T08:32:09;15.57;;;1.20;;
572;SDS011;271;51.114;13.780;2024-03-29T08:35:00;14.40;;;1.23;;
572;SDS011;271;51.114;13.780;2024-03-29T08:37:49;14.40;;;1.00;;
572;SDS011;271;51.114;13.780;2024-03-29T08:40:40;15.90;;;1.20;;
572;SDS011;271;51.114;13.780;2024-03-29T08:43:29;13.77;;;1.00;;
572;SDS011;271;51.114;13.780;2024-03-29T08:46:17;14.63;;;1.20;;
572;SDS011;271;51.114;13.780;2024-03-29T08:49:05;14.30;;;1.10;;
572;SDS011;271;51.114;13.780;2024-03-29T08:51:52;18.40;;;1.20;;
572;SDS011;271;51.114;13.780;2024-03-29T08:54:42;15.00;;;1.33;;
572;SDS011;271;51.114;13.780;2024-03-29T08:57:32;15.33;;;1.33;;
572;SDS011;271;51.114;13.780;2024-03-29T09:00:20;14.47;;;1.00;;
572;SDS011;271;51.114;13.780;2024-03-29T09:03:09;15.83;;;1.27;;
572;SDS011;271;51.114;13.780;2024-03-29T09:05:57;14.70;;;1.13;;
572;SDS011;271;51.114;13.780;2024-03-29T09:08:48;14.00;;;0.90;;
572;SDS011;271;51.114;13.780;2024-03-29T09:11:37;14.27;;;0.90;;
572;SDS011;271;51.114;13.780;2024-03-29T09:14:26;14.37;;;0.90;;
572;SDS011;271;51.114;13.780;2024-03-29T09:17:14;14.03;;;0.80;;
572;SDS011;271;51.114;13.780;2024-03-29T09:20:05;14.70;;;0.93;;
572;SDS011;271;51.114;13.780;2024-03-29T09:22:53;15.33;;;1.20;;
572;SDS011;271;51.114;13.780;2024-03-29T09:25:41;14.27;;;0.93;;
572;SDS011;271;51.114;13.780;2024-03-29T09:28:31;14.60;;;1.10;;
572;SDS011;271;51.114;13.780;2024-03-29T09:31:20;13.87;;;0.80;;
572;SDS011;271;51.114;13.780;2024-03-29T09:34:07;13.97;;;0.80;;
572;SDS011;271;51.114;13.780;2024-03-29T09:36:58;13.63;;;0.83;;
572;SDS011;271;51.114;13.780;2024-03-29T09:39:46;13.97;;;1.03;;
572;SDS011;271;51.114;13.780;2024-03-29T09:42:38;14.97;;;1.77;;
572;SDS011;271;51.114;13.780;2024-03-29T09:45:27;14.30;;;0.90;;
572;SDS011;271;51.114;13.780;2024-03-29T09:48:22;14.43;;;1.20;;
572;SDS011;271;51.114;13.780;2024-03-29T10:39:49;13.67;;;0.90;;
572;SDS011;271;51.114;13.780;2024-03-29T10:42:52;15.60;;;1.33;;
572;SDS011;271;51.114;13.780;2024-03-29T10:46:01;14.10;;;1.00;;
572;SDS011;271;51.114;13.780;2024-03-29T10:49:04;14.30;;;0.90;;
572;SDS011;271;51.114;13.780;2024-03-29T10:51:57;14.40;;;1.03;;
572;SDS011;271;51.114;13.780;2024-03-29T10:54:48;13.80;;;1.00;;
572;SDS011;271;51.114;13.780;2024-03-29T10:57:43;15.40;;;1.00;;
572;SDS011;271;51.114;13.780;2024-03-29T11:00:36;13.97;;;1.10;;
572;SDS011;271;51.114;13.780;2024-03-29T11:03:44;14.17;;;1.23;;
572;SDS011;271;51.114;13.780;2024-03-29T11:06:36;14.13;;;1.40;;
572;SDS011;271;51.114;13.780;2024-03-29T11:09:28;13.90;;;1.13;;
572;SDS011;271;51.114;13.780;2024-03-29T11:12:18;14.20;;;1.47;;
572;SDS011;271;51.114;13.780;2024-03-29T11:15:09;14.40;;;1.40;;
572;SDS011;271;51.114;13.780;2024-03-29T11:18:04;14.00;;;1.10;;
572;SDS011;271;51.114;13.780;2024-03-29T11:28:32;14.37;;;1.07;;
572;SDS011;271;51.114;13.780;2024-03-29T11:31:24;16.40;;;1.20;;
572;SDS011;271;51.114;13.780;2024-03-29T11:34:12;15.00;;;1.00;;
572;SDS011;271;51.114;13.780;2024-03-29T11:37:06;14.40;;;1.10;;
572;SDS011;271;51.114;13.780;2024-03-29T11:40:10;15.70;;;1.30;;
572;SDS011;271;51.114;13.780;2024-03-29T11:43:07;14.50;;;1.40;;
572;SDS011;271;51.114;13.780;2024-03-29T11:45:57;14.70;;;1.60;;
572;SDS011;271;51.114;13.780;2024-03-29T11:48:46;15.50;;;1.30;;
572;SDS011;271;51.114;13.780;2024-03-29T11:51:35;14.80;;;1.33;;
572;SDS011;271;51.114;13.780;2024-03-29T11:54:23;14.20;;;1.20;;
572;SDS011;271;51.114;13.780;2024-03-29T11:57:12;13.73;;;1.00;;
572;SDS011;271;51.114;13.780;2024-03-29T12:00:03;15.23;;;1.40;;
572;SDS011;271;51.114;13.780;2024-03-29T12:03:01;14.90;;;1.20;;
572;SDS011;271;51.114;13.780;2024-03-29T12:05:49;14.43;;;1.20;;
572;SDS011;271;51.114;13.780;2024-03-29T12:08:40;13.97;;;1.13;;
572;SDS011;271;51.114;13.780;2024-03-29T12:11:28;14.10;;;1.00;;
572;SDS011;271;51.114;13.780;2024-03-29T12:14:18;16.30;;;1.30;;
572;SDS011;271;51.114;13.780;2024-03-29T12:17:11;14.37;;;1.30;;
572;SDS011;271;51.114;13.780;2024-03-29T12:20:00;14.40;;;1.13;;
572;SDS011;271;51.114;13.780;2024-03-29T12:22:52;14.60;;;1.20;;
572;SDS011;271;51.114;13.780;2024-03-29T12:25:39;15.50;;;1.53;;
572;SDS011;271;51.114;13.780;2024-03-29T12:28:28;14.40;;;1.60;;
572;SDS011;271;51.114;13.780;2024-03-29T12:31:22;13.90;;;0.90;;
572;SDS011;271;51.114;13.780;2024-03-29T12:34:23;15.17;;;1.47;;
572;SDS011;271;51.114;13.780;2024-03-29T12:37:15;13.90;;;1.10;;
572;SDS011;271;51.114;13.780;2024-03-29T12:40:04;15.07;;;1.50;;
572;SDS011;271;51.114;13.780;2024-03-29T12:42:58;15.50;;;1.47;;
572;SDS011;271;51.114;13.780;2024-03-29T12:45:46;15.00;;;1.40;;
572;SDS011;271;51.114;13.780;2024-03-29T12:48:35;14.57;;;1.40;;
572;SDS011;271;51.114;13.780;2024-03-29T12:51:26;13.70;;;1.00;;
572;SDS011;271;51.114;13.780;2024-03-29T12:54:15;15.23;;;1.90;;
572;SDS011;271;51.114;13.780;2024-03-29T12:57:04;13.80;;;1.20;;
572;SDS011;271;51.114;13.780;2024-03-29T12:59:52;15.03;;;1.40;;
572;SDS011;271;51.114;13.780;2024-03-29T13:02:40;16.20;;;1.67;;
572;SDS011;271;51.114;13.780;2024-03-29T13:05:27;14.40;;;1.30;;
572;SDS011;271;51.114;13.780;2024-03-29T13:08:20;14.70;;;1.50;;
572;SDS011;271;51.114;13.780;2024-03-29T13:11:09;13.70;;;1.10;;
572;SDS011;271;51.114;13.780;2024-03-29T13:13:57;14.50;;;1.20;;
572;SDS011;271;51.114;13.780;2024-03-29T13:16:44;14.07;;;1.27;;
572;SDS011;271;51.114;13.780;2024-03-29T13:19:32;14.77;;;1.60;;
572;SDS011;271;51.114;13.780;2024-03-29T13:22:20;14.40;;;1.23;;
572;SDS011;271;51.114;13.780;2024-03-29T13:25:08;13.90;;;1.00;;
572;SDS011;271;51.114;13.780;2024-03-29T13:27:58;14.73;;;1.30;;
572;SDS011;271;51.114;13.780;2024-03-29T13:30:45;15.30;;;1.20;;
572;SDS011;271;51.114;13.780;2024-03-29T13:33:36;14.80;;;1.40;;
572;SDS011;271;51.114;13.780;2024-03-29T13:36:24;14.10;;;1.10;;
572;SDS011;271;51.114;13.780;2024-03-29T13:39:13;14.00;;;1.17;;
572;SDS011;271;51.114;13.780;2024-03-29T13:42:01;14.00;;;1.47;;
572;SDS011;271;51.114;13.780;2024-03-29T13:44:50;14.00;;;0.90;;
572;SDS011;271;51.114;13.780;2024-03-29T13:47:39;14.47;;;1.00;;
572;SDS011;271;51.114;13.780;2024-03-29T13:50:32;13.50;;;0.80;;
572;SDS011;271;51.114;13.780;2024-03-29T13:53:20;13.90;;;0.90;;
572;SDS011;271;51.114;13.780;2024-03-29T13:56:15;14.70;;;1.10;;
572;SDS011;271;51.114;13.780;2024-03-29T14:05:13;14.20;;;1.03;;
572;SDS011;271;51.114;13.780;2024-03-29T14:08:01;14.63;;;1.10;;
572;SDS011;271;51.114;13.780;2024-03-29T14:10:48;13.83;;;0.93;;
572;SDS011;271;51.114;13.780;2024-03-29T14:13:38;13.80;;;1.00;;
572;SDS011;271;51.114;13.780;2024-03-29T14:16:26;14.23;;;1.33;;
572;SDS011;271;51.114;13.780;2024-03-29T14:19:15;13.50;;;0.80;;
572;SDS011;271;51.114;13.780;2024-03-29T14:22:03;13.83;;;1.00;;
572;SDS011;271;51.114;13.780;2024-03-29T14:24:51;13.70;;;1.00;;
572;SDS011;271;51.114;13.780;2024-03-29T14:27:39;14.23;;;1.17;;
572;SDS011;271;51.114;13.780;2024-03-29T14:30:33;13.90;;;1.17;;
572;SDS011;271;51.114;13.780;2024-03-29T14:33:21;14.10;;;1.10;;
572;SDS011;271;51.114;13.780;2024-03-29T14:36:10;14.63;;;1.10;;
572;SDS011;271;51.114;13.780;2024-03-29T14:38:58;13.83;;;1.10;;
572;SDS011;271;51.114;13.780;2024-03-29T14:41:46;13.70;;;1.00;;
572;SDS011;271;51.114;13.780;2024-03-29T14:44:36;14.50;;;1.20;;
572;SDS011;271;51.114;13.780;2024-03-29T14:47:24;14.87;;;1.33;;
572;SDS011;271;51.114;13.780;2024-03-29T14:50:11;14.00;;;1.03;;
572;SDS011;271;51.114;13.780;2024-03-29T14:53:02;13.50;;;0.90;;
572;SDS011;271;51.114;13.780;2024-03-29T14:55:50;13.63;;;1.00;;
572;SDS011;271;51.114;13.780;2024-03-29T14:58:38;14.50;;;1.00;;
572;SDS011;271;51.114;13.780;2024-03-29T15:01:26;13.70;;;0.90;;
572;SDS011;271;51.114;13.780;2024-03-29T15:04:14;13.57;;;1.00;;
572;SDS011;271;51.114;13.780;2024-03-29T15:07:01;13.83;;;1.00;;
572;SDS011;271;51.114;13.780;2024-03-29T15:09:55;13.80;;;1.00;;
572;SDS011;271;51.114;13.780;2024-03-29T15:12:43;13.60;;;0.90;;
572;SDS011;271;51.114;13.780;2024-03-29T15:15:32;14.27;;;1.00;;
572;SDS011;271;51.114;13.780;2024-03-29T15:18:22;14.00;;;1.10;;
572;SDS011;271;51.114;13.780;2024-03-29T15:21:10;14.10;;;1.03;;
572;SDS011;271;51.114;13.780;2024-03-29T15:23:58;13.77;;;0.90;;
572;SDS011;271;51.114;13.780;2024-03-29T15:26:47;13.80;;;1.00;;
572;SDS011;271;51.114;13.780;2024-03-29T15:29:37;13.90;;;0.90;;
572;SDS011;271;51.114;13.780;2024-03-29T15:32:24;13.63;;;0.80;;
572;SDS011;271;51.114;13.780;2024-03-29T15:35:16;14.20;;;0.90;;
572;SDS011;271;51.114;13.780;2024-03-29T15:38:04;14.10;;;1.00;;
572;SDS011;271;51.114;13.780;2024-03-29T15:40:57;14.13;;;1.17;;
572;SDS011;271;51.114;13.780;2024-03-29T15:43:46;14.00;;;1.20;;
572;SDS011;271;51.114;13.780;2024-03-29T15:46:35;14.00;;;1.03;;
572;SDS011;271;51.114;13.780;2024-03-29T15:49:23;13.70;;;0.90;;
572;SDS011;271;51.114;13.780;2024-03-29T15:52:10;13.77;;;0.90;;
572;SDS011;271;51.114;13.780;2024-03-29T15:54:58;14.33;;;1.00;;
572;SDS011;271;51.114;13.780;2024-03-29T15:57:46;14.00;;;1.00;;
572;SDS011;271;51.114;13.780;2024-03-29T16:00:35;14.30;;;1.10;;
572;SDS011;271;51.114;13.780;2024-03-29T16:03:28;14.20;;;1.03;;
572;SDS011;271;51.114;13.780;2024-03-29T16:06:16;14.00;;;1.17;;
572;SDS011;271;51.114;13.780;2024-03-29T16:09:04;15.30;;;1.50;;
572;SDS011;271;51.114;13.780;2024-03-29T16:11:52;13.77;;;1.10;;
572;SDS011;271;51.114;13.780;2024-03-29T16:14:40;13.93;;;1.20;;
572;SDS011;271;51.114;13.780;2024-03-29T16:17:29;13.80;;;1.17;;
572;SDS011;271;51.114;13.780;2024-03-29T16:20:16;14.00;;;1.20;;
572;SDS011;271;51.114;13.780;2024-03-29T16:23:03;17.00;;;3.70;;
572;SDS011;271;51.114;13.780;2024-03-29T16:25:51;14.00;;;1.17;;
572;SDS011;271;51.114;13.780;2024-03-29T16:28:39;14.90;;;1.60;;
572;SDS011;271;51.114;13.780;2024-03-29T16:31:30;14.10;;;1.50;;
572;SDS011;271;51.114;13.780;2024-03-29T16:34:18;14.97;;;1.50;;
572;SDS011;271;51.114;13.780;2024-03-29T16:37:08;14.47;;;1.47;;
572;SDS011;271;51.114;13.780;2024-03-29T16:39:54;13.67;;;0.80;;
572;SDS011;271;51.114;13.780;2024-03-29T16:42:45;14.30;;;1.30;;
572;SDS011;271;51.114;13.780;2024-03-29T16:45:32;14.07;;;1.20;;
572;SDS011;271;51.114;13.780;2024-03-29T16:48:23;14.20;;;1.43;;
572;SDS011;271;51.114;13.780;2024-03-29T16:51:11;14.23;;;1.60;;
572;SDS011;271;51.114;13.780;2024-03-29T16:54:01;15.67;;;3.73;;
572;SDS011;271;51.114;13.780;2024-03-29T16:56:48;15.40;;;2.47;;
572;SDS011;271;51.114;13.780;2024-03-29T16:59:39;15.43;;;2.73;;
572;SDS011;271;51.114;13.780;2024-03-29T17:02:26;16.20;;;2.70;;
572;SDS011;271;51.114;13.780;2024-03-29T17:05:17;15.40;;;3.03;;
572;SDS011;271;51.114;13.780;2024-03-29T17:08:05;14.63;;;2.30;;
572;SDS011;271;51.114;13.780;2024-03-29T17:10:54;15.13;;;2.43;;
572;SDS011;271;51.114;13.780;2024-03-29T17:13:41;14.90;;;2.33;;
572;SDS011;271;51.114;13.780;2024-03-29T17:16:33;14.93;;;2.57;;
572;SDS011;271;51.114;13.780;2024-03-29T17:19:21;14.50;;;2.07;;
572;SDS011;271;51.114;13.780;2024-03-29T17:22:10;16.53;;;2.77;;
572;SDS011;271;51.114;13.780;2024-03-29T17:24:58;14.97;;;2.40;;
572;SDS011;271;51.114;13.780;2024-03-29T17:27:45;17.57;;;2.80;;
572;SDS011;271;51.114;13.780;2024-03-29T17:30:32;15.97;;;2.90;;
572;SDS011;271;51.114;13.780;2024-03-29T17:33:20;15.10;;;2.47;;
572;SDS011;271;51.114;13.780;2024-03-29T17:36:07;15.30;;;2.40;;
572;SDS011;271;51.114;13.780;2024-03-29T17:38:54;15.20;;;2.03;;
572;SDS011;271;51.114;13.780;2024-03-29T17:41:43;17.70;;;2.20;;
572;SDS011;271;51.114;13.780;2024-03-29T17:44:32;15.43;;;2.40;;
572;SDS011;271;51.114;13.780;2024-03-29T17:47:18;15.00;;;2.30;;
572;SDS011;271;51.114;13.780;2024-03-29T17:50:06;14.97;;;2.27;;
572;SDS011;271;51.114;13.780;2024-03-29T17:52:54;15.50;;;2.40;;
572;SDS011;271;51.114;13.780;2024-03-29T17:55:42;16.63;;;2.83;;
572;SDS011;271;51.114;13.780;2024-03-29T17:58:30;15.50;;;2.50;;
572;SDS011;271;51.114;13.780;2024-03-29T18:01:18;15.60;;;1.83;;
572;SDS011;271;51.114;13.780;2024-03-29T18:04:05;14.80;;;1.90;;
572;SDS011;271;51.114;13.780;2024-03-29T18:06:53;15.30;;;1.90;;
572;SDS011;271;51.114;13.780;2024-03-29T18:09:40;16.70;;;1.83;;
572;SDS011;271;51.114;13.780;2024-03-29T18:12:28;17.60;;;2.10;;
572;SDS011;271;51.114;13.780;2024-03-29T18:15:16;15.03;;;1.80;;
572;SDS011;271;51.114;13.780;2024-03-29T18:18:04;15.20;;;1.70;;
572;SDS011;271;51.114;13.780;2024-03-29T18:20:51;16.30;;;2.50;;
572;SDS011;271;51.114;13.780;2024-03-29T18:23:38;17.27;;;4.50;;
572;SDS011;271;51.114;13.780;2024-03-29T18:26:25;33.83;;;17.20;;
572;SDS011;271;51.114;13.780;2024-03-29T18:29:13;93.90;;;63.17;;
572;SDS011;271;51.114;13.780;2024-03-29T18:32:01;127.83;;;88.33;;